sensor_id;sensor_type;location;lat;lon;timestamp;pressure;altitude;pressure_sealevel;temperature;humidity
6198;BME280;3132;42.622;23.328;2023-03-14T00:00:37;92968.53;;;1.37;69.02
6198;BME280;3132;42.622;23.328;2023-03-14T00:03:03;92976.53;;;1.47;69.44
6198;BME280;3132;42.622;23.328;2023-03-14T00:05:29;92971.53;;;1.34;70.76
6198;BME280;3132;42.622;23.328;2023-03-14T00:07:54;92966.72;;;1.20;71.29
6198;BME280;3132;42.622;23.328;2023-03-14T00:10:20;92957.22;;;1.20;71.90
6198;BME280;3132;42.622;23.328;2023-03-14T00:12:45;92947.53;;;1.22;71.58
6198;BME280;3132;42.622;23.328;2023-03-14T00:15:11;92962.78;;;1.17;71.88
6198;BME280;3132;42.622;23.328;2023-03-14T00:17:37;92965.59;;;1.16;71.64
6198;BME280;3132;42.622;23.328;2023-03-14T00:20:06;92957.22;;;1.20;71.10
6198;BME280;3132;42.622;23.328;2023-03-14T00:22:35;92883.50;;;0.78;72.08
6198;BME280;3132;42.622;23.328;2023-03-14T00:25:01;92918.66;;;1.02;71.94
6198;BME280;3132;42.622;23.328;2023-03-14T00:27:27;92926.00;;;0.99;72.57
6198;BME280;3132;42.622;23.328;2023-03-14T00:29:52;92922.53;;;1.11;72.66
6198;BME280;3132;42.622;23.328;2023-03-14T00:32:18;92923.53;;;1.10;71.26
6198;BME280;3132;42.622;23.328;2023-03-14T00:34:43;92918.94;;;1.12;70.85
6198;BME280;3132;42.622;23.328;2023-03-14T00:37:08;92912.59;;;1.15;71.09
6198;BME280;3132;42.622;23.328;2023-03-14T00:39:34;92907.09;;;1.11;70.62
6198;BME280;3132;42.622;23.328;2023-03-14T00:41:59;92900.88;;;1.19;69.05
6198;BME280;3132;42.622;23.328;2023-03-14T00:44:25;92898.38;;;1.12;69.25
6198;BME280;3132;42.622;23.328;2023-03-14T00:46:50;92894.03;;;1.13;69.86
6198;BME280;3132;42.622;23.328;2023-03-14T00:49:16;92869.81;;;0.84;70.15
6198;BME280;3132;42.622;23.328;2023-03-14T00:51:41;92857.97;;;0.83;70.16
6198;BME280;3132;42.622;23.328;2023-03-14T00:54:06;92904.38;;;1.06;69.87
6198;BME280;3132;42.622;23.328;2023-03-14T00:56:32;92894.47;;;1.10;70.10
6198;BME280;3132;42.622;23.328;2023-03-14T00:58:57;92904.31;;;1.13;70.95
6198;BME280;3132;42.622;23.328;2023-03-14T01:01:23;92883.19;;;0.93;72.81
6198;BME280;3132;42.622;23.328;2023-03-14T01:03:52;92889.88;;;0.94;72.29
6198;BME280;3132;42.622;23.328;2023-03-14T01:06:20;92896.25;;;0.91;73.67
6198;BME280;3132;42.622;23.328;2023-03-14T01:08:46;92890.94;;;1.04;72.96
6198;BME280;3132;42.622;23.328;2023-03-14T01:11:15;92896.09;;;1.04;73.76
6198;BME280;3132;42.622;23.328;2023-03-14T01:13:42;92894.69;;;1.08;73.94
6198;BME280;3132;42.622;23.328;2023-03-14T01:16:09;92893.72;;;1.03;75.01
6198;BME280;3132;42.622;23.328;2023-03-14T01:18:35;92899.16;;;1.13;74.16
6198;BME280;3132;42.622;23.328;2023-03-14T01:21:03;92880.53;;;0.99;73.85
6198;BME280;3132;42.622;23.328;2023-03-14T01:23:28;92879.66;;;0.87;74.28
6198;BME280;3132;42.622;23.328;2023-03-14T01:25:54;92861.50;;;0.64;75.44
6198;BME280;3132;42.622;23.328;2023-03-14T01:28:19;92872.91;;;0.93;74.74
6198;BME280;3132;42.622;23.328;2023-03-14T01:30:45;92867.81;;;0.86;74.83
6198;BME280;3132;42.622;23.328;2023-03-14T01:33:10;92853.53;;;0.72;75.92
6198;BME280;3132;42.622;23.328;2023-03-14T01:35:37;92852.97;;;0.70;75.49
6198;BME280;3132;42.622;23.328;2023-03-14T01:38:03;92847.97;;;0.75;74.73
6198;BME280;3132;42.622;23.328;2023-03-14T01:40:28;92871.66;;;0.95;74.34
6198;BME280;3132;42.622;23.328;2023-03-14T01:42:56;92861.25;;;0.90;74.32
6198;BME280;3132;42.622;23.328;2023-03-14T01:48:26;92855.13;;;0.91;74.98
6198;BME280;3132;42.622;23.328;2023-03-14T01:50:52;92837.06;;;0.80;75.03
6198;BME280;3132;42.622;23.328;2023-03-14T01:53:18;92840.06;;;0.77;76.44
6198;BME280;3132;42.622;23.328;2023-03-14T01:55:47;92834.41;;;0.68;78.17
6198;BME280;3132;42.622;23.328;2023-03-14T01:58:14;92845.41;;;0.75;76.98
6198;BME280;3132;42.622;23.328;2023-03-14T02:00:41;92844.34;;;0.65;76.20
6198;BME280;3132;42.622;23.328;2023-03-14T02:03:11;92855.94;;;0.67;76.11
6198;BME280;3132;42.622;23.328;2023-03-14T02:05:40;92836.19;;;0.50;77.41
6198;BME280;3132;42.622;23.328;2023-03-14T02:08:18;92849.09;;;0.61;78.02
6198;BME280;3132;42.622;23.328;2023-03-14T02:10:47;92845.59;;;0.56;78.47
6198;BME280;3132;42.622;23.328;2023-03-14T02:13:14;92828.69;;;0.48;77.94
6198;BME280;3132;42.622;23.328;2023-03-14T02:15:40;92844.81;;;0.55;78.12
6198;BME280;3132;42.622;23.328;2023-03-14T02:18:06;92838.53;;;0.51;76.89
6198;BME280;3132;42.622;23.328;2023-03-14T02:23:15;92805.75;;;0.29;76.73
6198;BME280;3132;42.622;23.328;2023-03-14T02:25:59;92830.69;;;0.64;77.80
6198;BME280;3132;42.622;23.328;2023-03-14T02:28:27;92836.84;;;0.63;77.05
6198;BME280;3132;42.622;23.328;2023-03-14T02:30:52;92817.22;;;0.51;76.96
6198;BME280;3132;42.622;23.328;2023-03-14T02:33:19;92838.13;;;0.54;78.38
6198;BME280;3132;42.622;23.328;2023-03-14T02:35:53;92834.13;;;0.58;78.78
6198;BME280;3132;42.622;23.328;2023-03-14T02:41:07;92839.78;;;0.42;78.44
6198;BME280;3132;42.622;23.328;2023-03-14T02:43:33;92833.91;;;0.42;77.96
6198;BME280;3132;42.622;23.328;2023-03-14T02:46:00;92840.53;;;0.49;78.22
6198;BME280;3132;42.622;23.328;2023-03-14T02:48:26;92849.31;;;0.42;77.50
6198;BME280;3132;42.622;23.328;2023-03-14T02:50:56;92846.69;;;0.48;76.88
6198;BME280;3132;42.622;23.328;2023-03-14T02:53:25;92839.66;;;0.37;76.45
6198;BME280;3132;42.622;23.328;2023-03-14T02:55:51;92807.69;;;0.33;76.65
6198;BME280;3132;42.622;23.328;2023-03-14T02:58:18;92850.69;;;0.38;78.30
6198;BME280;3132;42.622;23.328;2023-03-14T03:00:44;92848.03;;;0.51;78.14
6198;BME280;3132;42.622;23.328;2023-03-14T03:03:09;92860.00;;;0.57;77.31
6198;BME280;3132;42.622;23.328;2023-03-14T03:05:35;92852.56;;;0.49;76.73
6198;BME280;3132;42.622;23.328;2023-03-14T03:08:00;92832.00;;;0.31;76.72
6198;BME280;3132;42.622;23.328;2023-03-14T03:10:27;92846.19;;;0.33;77.48
6198;BME280;3132;42.622;23.328;2023-03-14T03:12:52;92848.94;;;0.38;77.24
6198;BME280;3132;42.622;23.328;2023-03-14T03:15:18;92845.31;;;0.46;77.19
6198;BME280;3132;42.622;23.328;2023-03-14T03:17:43;92836.19;;;0.50;77.23
6198;BME280;3132;42.622;23.328;2023-03-14T03:20:10;92823.63;;;0.42;77.14
6198;BME280;3132;42.622;23.328;2023-03-14T03:22:36;92833.19;;;0.28;78.62
6198;BME280;3132;42.622;23.328;2023-03-14T03:25:03;92830.78;;;0.33;79.22
6198;BME280;3132;42.622;23.328;2023-03-14T03:27:30;92837.94;;;0.31;78.87
6198;BME280;3132;42.622;23.328;2023-03-14T03:29:57;92843.94;;;0.43;78.25
6198;BME280;3132;42.622;23.328;2023-03-14T03:32:22;92842.72;;;0.46;77.59
6198;BME280;3132;42.622;23.328;2023-03-14T03:34:48;92821.84;;;0.18;78.87
6198;BME280;3132;42.622;23.328;2023-03-14T03:37:13;92839.75;;;0.49;78.81
6198;BME280;3132;42.622;23.328;2023-03-14T03:39:38;92837.56;;;0.28;79.97
6198;BME280;3132;42.622;23.328;2023-03-14T03:42:04;92834.00;;;0.29;79.87
6198;BME280;3132;42.622;23.328;2023-03-14T03:44:29;92834.66;;;0.42;78.46
6198;BME280;3132;42.622;23.328;2023-03-14T03:46:54;92835.09;;;0.39;78.17
6198;BME280;3132;42.622;23.328;2023-03-14T03:49:20;92840.16;;;0.28;79.99
6198;BME280;3132;42.622;23.328;2023-03-14T03:51:45;92822.31;;;0.08;80.01
6198;BME280;3132;42.622;23.328;2023-03-14T03:54:11;92847.09;;;0.21;80.61
6198;BME280;3132;42.622;23.328;2023-03-14T03:56:36;92851.09;;;0.17;80.55
6198;BME280;3132;42.622;23.328;2023-03-14T03:59:01;92847.16;;;0.14;79.16
6198;BME280;3132;42.622;23.328;2023-03-14T04:01:27;92855.81;;;0.20;78.20
6198;BME280;3132;42.622;23.328;2023-03-14T04:03:52;92857.56;;;0.19;78.10
6198;BME280;3132;42.622;23.328;2023-03-14T04:06:17;92859.03;;;0.09;79.33
6198;BME280;3132;42.622;23.328;2023-03-14T04:08:43;92852.50;;;0.13;80.10
6198;BME280;3132;42.622;23.328;2023-03-14T04:11:08;92846.59;;;0.12;80.45
6198;BME280;3132;42.622;23.328;2023-03-14T04:13:34;92836.75;;;0.09;79.68
6198;BME280;3132;42.622;23.328;2023-03-14T04:15:59;92844.03;;;0.12;79.58
6198;BME280;3132;42.622;23.328;2023-03-14T04:18:25;92834.66;;;-0.01;81.77
6198;BME280;3132;42.622;23.328;2023-03-14T04:20:52;92827.75;;;0.00;81.72
6198;BME280;3132;42.622;23.328;2023-03-14T04:23:18;92832.38;;;0.10;82.13
6198;BME280;3132;42.622;23.328;2023-03-14T04:25:44;92792.50;;;-0.11;81.25
6198;BME280;3132;42.622;23.328;2023-03-14T04:28:09;92826.38;;;-0.03;83.15
6198;BME280;3132;42.622;23.328;2023-03-14T04:30:34;92824.97;;;0.02;82.21
6198;BME280;3132;42.622;23.328;2023-03-14T04:33:00;92813.31;;;-0.01;82.50
6198;BME280;3132;42.622;23.328;2023-03-14T04:35:25;92805.25;;;-0.05;83.12
6198;BME280;3132;42.622;23.328;2023-03-14T04:37:51;92793.22;;;-0.04;82.38
6198;BME280;3132;42.622;23.328;2023-03-14T04:40:17;92807.91;;;-0.11;81.50
6198;BME280;3132;42.622;23.328;2023-03-14T04:42:42;92803.91;;;-0.07;81.76
6198;BME280;3132;42.622;23.328;2023-03-14T04:45:08;92808.72;;;0.08;80.30
6198;BME280;3132;42.622;23.328;2023-03-14T04:47:33;92790.66;;;-0.04;79.84
6198;BME280;3132;42.622;23.328;2023-03-14T04:49:59;92811.09;;;0.27;79.17
6198;BME280;3132;42.622;23.328;2023-03-14T04:52:25;92768.72;;;0.00;78.92
6198;BME280;3132;42.622;23.328;2023-03-14T04:54:51;92801.38;;;0.11;81.02
6198;BME280;3132;42.622;23.328;2023-03-14T04:57:16;92772.28;;;-0.01;80.59
6198;BME280;3132;42.622;23.328;2023-03-14T04:59:42;92763.59;;;0.00;80.90
6198;BME280;3132;42.622;23.328;2023-03-14T05:02:07;92783.13;;;0.19;80.84
6198;BME280;3132;42.622;23.328;2023-03-14T05:04:32;92788.59;;;0.29;81.16
6198;BME280;3132;42.622;23.328;2023-03-14T05:06:59;92791.59;;;0.26;80.50
6198;BME280;3132;42.622;23.328;2023-03-14T05:09:24;92782.38;;;0.19;81.32
6198;BME280;3132;42.622;23.328;2023-03-14T05:11:50;92786.44;;;0.26;80.59
6198;BME280;3132;42.622;23.328;2023-03-14T05:14:15;92791.44;;;0.39;80.79
6198;BME280;3132;42.622;23.328;2023-03-14T05:16:41;92781.31;;;0.44;80.18
6198;BME280;3132;42.622;23.328;2023-03-14T05:19:06;92792.88;;;0.53;80.65
6198;BME280;3132;42.622;23.328;2023-03-14T05:21:31;92792.59;;;0.61;80.39
6198;BME280;3132;42.622;23.328;2023-03-14T05:23:57;92803.50;;;0.75;79.76
6198;BME280;3132;42.622;23.328;2023-03-14T05:26:23;92776.25;;;0.74;79.90
6198;BME280;3132;42.622;23.328;2023-03-14T05:28:48;92785.78;;;1.03;79.23
6198;BME280;3132;42.622;23.328;2023-03-14T05:31:13;92794.28;;;1.21;78.90
6198;BME280;3132;42.622;23.328;2023-03-14T05:33:39;92789.50;;;1.36;78.47
6198;BME280;3132;42.622;23.328;2023-03-14T05:36:05;92789.81;;;1.58;78.11
6198;BME280;3132;42.622;23.328;2023-03-14T05:38:31;92789.06;;;1.81;76.35
6198;BME280;3132;42.622;23.328;2023-03-14T05:40:56;92781.38;;;2.04;74.72
6198;BME280;3132;42.622;23.328;2023-03-14T05:43:22;92787.97;;;2.23;73.10
6198;BME280;3132;42.622;23.328;2023-03-14T05:45:47;92788.22;;;2.33;73.07
6198;BME280;3132;42.622;23.328;2023-03-14T05:48:12;92786.31;;;2.63;70.66
6198;BME280;3132;42.622;23.328;2023-03-14T05:50:38;92795.81;;;2.74;67.72
6198;BME280;3132;42.622;23.328;2023-03-14T05:53:04;92794.13;;;2.79;67.42
6198;BME280;3132;42.622;23.328;2023-03-14T05:55:30;92795.69;;;2.80;65.92
6198;BME280;3132;42.622;23.328;2023-03-14T05:57:55;92790.75;;;2.90;65.91
6198;BME280;3132;42.622;23.328;2023-03-14T06:00:21;92794.75;;;2.86;65.23
6198;BME280;3132;42.622;23.328;2023-03-14T06:02:47;92796.53;;;2.97;64.97
6198;BME280;3132;42.622;23.328;2023-03-14T06:05:12;92783.56;;;2.92;64.83
6198;BME280;3132;42.622;23.328;2023-03-14T06:07:38;92788.91;;;3.02;65.55
6198;BME280;3132;42.622;23.328;2023-03-14T06:10:04;92802.09;;;2.78;66.20
6198;BME280;3132;42.622;23.328;2023-03-14T06:12:29;92757.81;;;2.69;66.16
6198;BME280;3132;42.622;23.328;2023-03-14T06:14:55;92793.91;;;2.81;66.34
6198;BME280;3132;42.622;23.328;2023-03-14T06:17:20;92790.91;;;2.72;66.62
6198;BME280;3132;42.622;23.328;2023-03-14T06:19:46;92786.97;;;2.70;65.79
6198;BME280;3132;42.622;23.328;2023-03-14T06:22:11;92783.06;;;2.33;67.11
6198;BME280;3132;42.622;23.328;2023-03-14T06:24:37;92789.47;;;2.53;67.35
6198;BME280;3132;42.622;23.328;2023-03-14T06:27:02;92800.97;;;2.51;68.45
6198;BME280;3132;42.622;23.328;2023-03-14T06:29:29;92788.31;;;2.61;67.77
6198;BME280;3132;42.622;23.328;2023-03-14T06:31:55;92782.50;;;2.54;67.20
6198;BME280;3132;42.622;23.328;2023-03-14T06:34:20;92791.31;;;2.69;68.01
6198;BME280;3132;42.622;23.328;2023-03-14T06:36:46;92798.94;;;2.76;67.38
6198;BME280;3132;42.622;23.328;2023-03-14T06:39:11;92798.25;;;2.80;67.84
6198;BME280;3132;42.622;23.328;2023-03-14T06:41:37;92790.13;;;3.11;66.29
6198;BME280;3132;42.622;23.328;2023-03-14T06:44:02;92797.56;;;3.36;65.43
6198;BME280;3132;42.622;23.328;2023-03-14T06:46:28;92789.88;;;3.24;66.01
6198;BME280;3132;42.622;23.328;2023-03-14T06:48:53;92770.13;;;2.90;66.17
6198;BME280;3132;42.622;23.328;2023-03-14T06:51:19;92773.88;;;3.11;65.56
6198;BME280;3132;42.622;23.328;2023-03-14T06:53:44;92767.81;;;3.05;65.89
6198;BME280;3132;42.622;23.328;2023-03-14T06:56:10;92770.41;;;3.33;65.20
6198;BME280;3132;42.622;23.328;2023-03-14T06:58:35;92776.34;;;3.62;65.08
6198;BME280;3132;42.622;23.328;2023-03-14T07:01:01;92770.69;;;3.93;64.42
6198;BME280;3132;42.622;23.328;2023-03-14T07:03:26;92783.66;;;4.31;62.97
6198;BME280;3132;42.622;23.328;2023-03-14T07:05:52;92774.88;;;4.49;61.81
6198;BME280;3132;42.622;23.328;2023-03-14T07:08:18;92759.22;;;4.55;60.89
6198;BME280;3132;42.622;23.328;2023-03-14T07:10:43;92770.84;;;4.74;60.58
6198;BME280;3132;42.622;23.328;2023-03-14T07:13:09;92766.19;;;4.76;61.66
6198;BME280;3132;42.622;23.328;2023-03-14T07:15:34;92752.28;;;4.77;61.71
6198;BME280;3132;42.622;23.328;2023-03-14T07:18:00;92755.66;;;5.00;61.69
6198;BME280;3132;42.622;23.328;2023-03-14T07:20:25;92745.34;;;5.05;61.44
6198;BME280;3132;42.622;23.328;2023-03-14T07:22:51;92763.63;;;4.98;61.71
6198;BME280;3132;42.622;23.328;2023-03-14T07:25:17;92751.63;;;4.87;61.95
6198;BME280;3132;42.622;23.328;2023-03-14T07:27:44;92773.22;;;4.97;61.72
6198;BME280;3132;42.622;23.328;2023-03-14T07:30:10;92762.13;;;5.02;60.26
6198;BME280;3132;42.622;23.328;2023-03-14T07:32:36;92760.09;;;5.04;60.61
6198;BME280;3132;42.622;23.328;2023-03-14T07:35:02;92766.94;;;5.37;59.84
6198;BME280;3132;42.622;23.328;2023-03-14T07:37:27;92762.47;;;5.11;60.47
6198;BME280;3132;42.622;23.328;2023-03-14T07:39:52;92761.00;;;4.93;60.83
6198;BME280;3132;42.622;23.328;2023-03-14T07:42:18;92749.13;;;5.19;60.72
6198;BME280;3132;42.622;23.328;2023-03-14T07:44:43;92760.78;;;5.43;59.17
6198;BME280;3132;42.622;23.328;2023-03-14T07:47:09;92743.28;;;5.55;59.18
6198;BME280;3132;42.622;23.328;2023-03-14T07:49:34;92753.78;;;5.70;58.47
6198;BME280;3132;42.622;23.328;2023-03-14T07:51:59;92732.63;;;5.78;58.91
6198;BME280;3132;42.622;23.328;2023-03-14T07:54:25;92733.28;;;5.37;59.33
6198;BME280;3132;42.622;23.328;2023-03-14T07:56:51;92750.19;;;5.71;58.83
6198;BME280;3132;42.622;23.328;2023-03-14T07:59:17;92748.28;;;5.61;60.16
6198;BME280;3132;42.622;23.328;2023-03-14T08:01:42;92746.50;;;5.67;58.65
6198;BME280;3132;42.622;23.328;2023-03-14T08:04:08;92749.34;;;5.65;57.79
6198;BME280;3132;42.622;23.328;2023-03-14T08:06:35;92740.59;;;5.98;57.54
6198;BME280;3132;42.622;23.328;2023-03-14T08:09:01;92747.75;;;5.86;58.09
6198;BME280;3132;42.622;23.328;2023-03-14T08:11:26;92754.28;;;5.93;57.62
6198;BME280;3132;42.622;23.328;2023-03-14T08:13:51;92746.38;;;6.05;57.79
6198;BME280;3132;42.622;23.328;2023-03-14T08:16:17;92730.13;;;6.14;57.21
6198;BME280;3132;42.622;23.328;2023-03-14T08:18:43;92735.31;;;6.56;55.72
6198;BME280;3132;42.622;23.328;2023-03-14T08:21:09;92734.25;;;6.52;55.90
6198;BME280;3132;42.622;23.328;2023-03-14T08:23:35;92734.59;;;6.66;54.63
6198;BME280;3132;42.622;23.328;2023-03-14T08:26:00;92751.97;;;6.65;54.93
6198;BME280;3132;42.622;23.328;2023-03-14T08:28:26;92746.22;;;6.63;54.86
6198;BME280;3132;42.622;23.328;2023-03-14T08:30:56;92739.59;;;6.82;55.38
6198;BME280;3132;42.622;23.328;2023-03-14T08:33:23;92742.66;;;6.74;55.06
6198;BME280;3132;42.622;23.328;2023-03-14T08:35:52;92731.31;;;6.80;53.82
6198;BME280;3132;42.622;23.328;2023-03-14T08:38:17;92739.09;;;6.80;54.28
6198;BME280;3132;42.622;23.328;2023-03-14T08:40:43;92733.22;;;7.05;54.27
6198;BME280;3132;42.622;23.328;2023-03-14T08:43:08;92743.09;;;7.08;55.00
6198;BME280;3132;42.622;23.328;2023-03-14T08:45:33;92732.28;;;7.31;52.51
6198;BME280;3132;42.622;23.328;2023-03-14T08:47:59;92734.09;;;7.35;52.87
6198;BME280;3132;42.622;23.328;2023-03-14T08:50:24;92726.00;;;7.17;52.51
6198;BME280;3132;42.622;23.328;2023-03-14T08:52:50;92722.69;;;7.31;51.46
6198;BME280;3132;42.622;23.328;2023-03-14T08:55:16;92707.91;;;7.52;52.58
6198;BME280;3132;42.622;23.328;2023-03-14T08:57:41;92717.44;;;7.21;51.71
6198;BME280;3132;42.622;23.328;2023-03-14T09:00:07;92715.41;;;7.33;51.37
6198;BME280;3132;42.622;23.328;2023-03-14T09:02:36;92714.56;;;7.18;52.37
6198;BME280;3132;42.622;23.328;2023-03-14T09:05:01;92706.56;;;7.39;52.81
6198;BME280;3132;42.622;23.328;2023-03-14T09:07:27;92703.28;;;7.79;49.77
6198;BME280;3132;42.622;23.328;2023-03-14T09:09:52;92698.09;;;7.89;48.97
6198;BME280;3132;42.622;23.328;2023-03-14T09:12:18;92702.50;;;7.98;49.45
6198;BME280;3132;42.622;23.328;2023-03-14T09:14:43;92691.84;;;8.05;48.87
6198;BME280;3132;42.622;23.328;2023-03-14T09:17:08;92683.25;;;8.09;48.83
6198;BME280;3132;42.622;23.328;2023-03-14T09:19:34;92684.81;;;8.20;48.35
6198;BME280;3132;42.622;23.328;2023-03-14T09:21:59;92683.28;;;8.25;47.69
6198;BME280;3132;42.622;23.328;2023-03-14T09:24:25;92678.84;;;8.25;48.13
6198;BME280;3132;42.622;23.328;2023-03-14T09:26:50;92672.84;;;8.09;48.87
6198;BME280;3132;42.622;23.328;2023-03-14T09:29:16;92657.78;;;8.16;48.57
6198;BME280;3132;42.622;23.328;2023-03-14T09:31:41;92653.59;;;8.51;48.63
6198;BME280;3132;42.622;23.328;2023-03-14T09:34:06;92656.19;;;8.41;48.97
6198;BME280;3132;42.622;23.328;2023-03-14T09:36:32;92661.03;;;8.82;47.50
6198;BME280;3132;42.622;23.328;2023-03-14T09:38:57;92654.16;;;9.01;48.26
6198;BME280;3132;42.622;23.328;2023-03-14T09:41:29;92638.50;;;9.16;46.92
6198;BME280;3132;42.622;23.328;2023-03-14T09:44:06;92644.03;;;9.43;46.07
6198;BME280;3132;42.622;23.328;2023-03-14T09:46:36;92629.41;;;9.52;45.99
6198;BME280;3132;42.622;23.328;2023-03-14T09:49:10;92629.56;;;9.27;46.90
6198;BME280;3132;42.622;23.328;2023-03-14T09:51:36;92621.34;;;9.54;45.41
6198;BME280;3132;42.622;23.328;2023-03-14T09:54:04;92631.81;;;9.44;45.83
6198;BME280;3132;42.622;23.328;2023-03-14T09:56:32;92622.38;;;9.48;46.40
6198;BME280;3132;42.622;23.328;2023-03-14T09:59:00;92613.97;;;9.61;45.35
6198;BME280;3132;42.622;23.328;2023-03-14T10:01:29;92616.03;;;9.64;45.99
6198;BME280;3132;42.622;23.328;2023-03-14T10:03:57;92611.53;;;10.03;45.12
6198;BME280;3132;42.622;23.328;2023-03-14T10:06:27;92605.06;;;9.67;44.86
6198;BME280;3132;42.622;23.328;2023-03-14T10:08:54;92592.00;;;9.38;46.88
6198;BME280;3132;42.622;23.328;2023-03-14T10:11:20;92600.41;;;9.59;46.15
6198;BME280;3132;42.622;23.328;2023-03-14T10:14:08;92599.78;;;9.77;45.58
6198;BME280;3132;42.622;23.328;2023-03-14T10:16:41;92595.19;;;9.98;44.62
6198;BME280;3132;42.622;23.328;2023-03-14T10:19:11;92583.91;;;10.02;44.17
6198;BME280;3132;42.622;23.328;2023-03-14T10:21:41;92585.28;;;10.23;44.36
6198;BME280;3132;42.622;23.328;2023-03-14T10:24:22;92581.47;;;10.39;44.33
6198;BME280;3132;42.622;23.328;2023-03-14T10:27:17;92570.66;;;10.69;42.78
6198;BME280;3132;42.622;23.328;2023-03-14T10:29:54;92558.84;;;10.77;42.84
6198;BME280;3132;42.622;23.328;2023-03-14T10:32:22;92551.66;;;10.87;43.44
6198;BME280;3132;42.622;23.328;2023-03-14T10:37:30;92543.97;;;11.14;42.76
6198;BME280;3132;42.622;23.328;2023-03-14T10:39:59;92533.31;;;10.92;42.03
6198;BME280;3132;42.622;23.328;2023-03-14T10:42:32;92527.94;;;11.21;43.00
6198;BME280;3132;42.622;23.328;2023-03-14T10:45:21;92516.41;;;11.41;41.04
6198;BME280;3132;42.622;23.328;2023-03-14T10:47:51;92501.19;;;11.43;41.84
6198;BME280;3132;42.622;23.328;2023-03-14T10:50:27;92510.63;;;11.44;41.83
6198;BME280;3132;42.622;23.328;2023-03-14T10:52:54;92507.50;;;11.42;42.69
6198;BME280;3132;42.622;23.328;2023-03-14T10:55:20;92496.47;;;11.45;41.76
6198;BME280;3132;42.622;23.328;2023-03-14T10:57:45;92496.72;;;11.62;42.72
6198;BME280;3132;42.622;23.328;2023-03-14T11:00:15;92485.63;;;11.70;41.87
6198;BME280;3132;42.622;23.328;2023-03-14T11:07:45;92476.31;;;11.64;41.88
6198;BME280;3132;42.622;23.328;2023-03-14T11:10:29;92472.78;;;11.55;42.36
6198;BME280;3132;42.622;23.328;2023-03-14T11:13:16;92462.72;;;11.62;42.70
6198;BME280;3132;42.622;23.328;2023-03-14T11:27:18;92429.09;;;12.28;41.18
6198;BME280;3132;42.622;23.328;2023-03-14T11:35:37;92409.09;;;12.32;41.41
6198;BME280;3132;42.622;23.328;2023-03-14T11:38:19;92405.94;;;12.57;42.56
6198;BME280;3132;42.622;23.328;2023-03-14T11:40:48;92400.72;;;12.57;40.83
6198;BME280;3132;42.622;23.328;2023-03-14T11:43:20;92403.06;;;12.45;41.23
6198;BME280;3132;42.622;23.328;2023-03-14T11:45:50;92401.50;;;12.44;40.95
6198;BME280;3132;42.622;23.328;2023-03-14T11:48:22;92388.16;;;12.32;41.48
6198;BME280;3132;42.622;23.328;2023-03-14T11:50:52;92389.25;;;12.53;40.12
6198;BME280;3132;42.622;23.328;2023-03-14T11:56:19;92375.97;;;12.85;40.21
6198;BME280;3132;42.622;23.328;2023-03-14T11:59:01;92365.97;;;12.87;39.23
6198;BME280;3132;42.622;23.328;2023-03-14T12:01:34;92358.56;;;12.89;39.36
6198;BME280;3132;42.622;23.328;2023-03-14T12:04:16;92356.56;;;12.86;39.09
6198;BME280;3132;42.622;23.328;2023-03-14T12:06:50;92352.25;;;13.04;38.63
6198;BME280;3132;42.622;23.328;2023-03-14T12:09:18;92351.28;;;13.00;39.44
6198;BME280;3132;42.622;23.328;2023-03-14T12:11:52;92351.44;;;13.03;39.00
6198;BME280;3132;42.622;23.328;2023-03-14T12:14:26;92345.00;;;13.09;38.06
6198;BME280;3132;42.622;23.328;2023-03-14T12:17:19;92328.25;;;13.19;38.05
6198;BME280;3132;42.622;23.328;2023-03-14T12:19:45;92323.97;;;13.23;37.49
6198;BME280;3132;42.622;23.328;2023-03-14T12:22:27;92322.50;;;13.39;38.19
6198;BME280;3132;42.622;23.328;2023-03-14T12:30:24;92307.47;;;13.22;37.84
6198;BME280;3132;42.622;23.328;2023-03-14T12:35:47;92287.25;;;13.53;36.76
6198;BME280;3132;42.622;23.328;2023-03-14T12:43:39;92287.41;;;13.57;36.25
6198;BME280;3132;42.622;23.328;2023-03-14T12:51:15;92284.97;;;13.60;37.27
6198;BME280;3132;42.622;23.328;2023-03-14T12:56:32;92271.72;;;13.74;35.78
6198;BME280;3132;42.622;23.328;2023-03-14T12:59:45;92268.03;;;13.92;36.14
6198;BME280;3132;42.622;23.328;2023-03-14T13:07:31;92248.16;;;14.08;37.56
6198;BME280;3132;42.622;23.328;2023-03-14T13:10:03;92238.94;;;14.36;35.64
6198;BME280;3132;42.622;23.328;2023-03-14T13:12:37;92252.66;;;14.50;34.22
6198;BME280;3132;42.622;23.328;2023-03-14T13:15:14;92255.75;;;14.52;35.15
6198;BME280;3132;42.622;23.328;2023-03-14T13:17:42;92238.25;;;14.65;34.88
6198;BME280;3132;42.622;23.328;2023-03-14T13:20:23;92229.34;;;14.40;34.17
6198;BME280;3132;42.622;23.328;2023-03-14T13:22:50;92222.53;;;14.30;34.46
6198;BME280;3132;42.622;23.328;2023-03-14T13:25:16;92224.56;;;14.51;33.51
6198;BME280;3132;42.622;23.328;2023-03-14T13:27:46;92221.75;;;14.56;34.25
6198;BME280;3132;42.622;23.328;2023-03-14T13:30:40;92218.19;;;14.69;33.93
6198;BME280;3132;42.622;23.328;2023-03-14T13:33:06;92204.28;;;14.60;32.92
6198;BME280;3132;42.622;23.328;2023-03-14T13:35:42;92207.03;;;14.72;33.56
6198;BME280;3132;42.622;23.328;2023-03-14T13:38:19;92193.16;;;14.63;33.31
6198;BME280;3132;42.622;23.328;2023-03-14T13:40:46;92189.38;;;14.81;32.54
6198;BME280;3132;42.622;23.328;2023-03-14T13:43:19;92192.97;;;14.76;33.17
6198;BME280;3132;42.622;23.328;2023-03-14T13:45:51;92186.28;;;14.79;33.71
6198;BME280;3132;42.622;23.328;2023-03-14T13:48:19;92174.41;;;14.81;32.14
6198;BME280;3132;42.622;23.328;2023-03-14T13:51:04;92179.97;;;14.71;32.49
6198;BME280;3132;42.622;23.328;2023-03-14T13:53:30;92170.97;;;14.34;33.05
6198;BME280;3132;42.622;23.328;2023-03-14T13:55:57;92164.38;;;14.75;32.35
6198;BME280;3132;42.622;23.328;2023-03-14T13:58:29;92154.50;;;14.72;32.77
6198;BME280;3132;42.622;23.328;2023-03-14T14:03:54;92144.44;;;14.74;33.86
6198;BME280;3132;42.622;23.328;2023-03-14T14:08:53;92132.69;;;14.71;33.31
6198;BME280;3132;42.622;23.328;2023-03-14T14:11:41;92133.16;;;14.73;32.48
6198;BME280;3132;42.622;23.328;2023-03-14T14:14:12;92120.03;;;14.65;32.73
6198;BME280;3132;42.622;23.328;2023-03-14T14:16:43;92122.63;;;14.82;31.60
6198;BME280;3132;42.622;23.328;2023-03-14T14:19:10;92120.47;;;14.75;31.99
6198;BME280;3132;42.622;23.328;2023-03-14T14:21:36;92068.31;;;14.57;31.42
6198;BME280;3132;42.622;23.328;2023-03-14T14:24:03;92103.63;;;14.76;32.06
6198;BME280;3132;42.622;23.328;2023-03-14T14:26:28;92084.50;;;14.59;31.88
6198;BME280;3132;42.622;23.328;2023-03-14T14:29:05;92093.53;;;14.40;34.86
6198;BME280;3132;42.622;23.328;2023-03-14T14:31:31;92076.69;;;14.41;32.94